createdAt,value
2022-08-18T00:01:52.576Z,42.05
2022-08-18T00:03:59.123Z,42.05
2022-08-18T00:06:04.656Z,41.88
2022-08-18T00:08:09.704Z,42.26
2022-08-18T00:10:17.970Z,42.26
2022-08-18T00:12:26.936Z,42.52
2022-08-18T00:14:32.097Z,42.56
2022-08-18T00:16:39.589Z,42.46
2022-08-18T00:18:44.390Z,42.68
2022-08-18T00:20:49.537Z,42.06
2022-08-18T00:22:56.640Z,42.08
2022-08-18T00:25:01.557Z,41.98
2022-08-18T00:27:06.833Z,41.79
2022-08-18T00:29:12.400Z,42.00
2022-08-18T00:31:17.314Z,42.61
2022-08-18T00:33:24.994Z,43.00
2022-08-18T00:35:32.737Z,43.18
2022-08-18T00:37:37.789Z,43.05
2022-08-18T00:39:46.587Z,43.26
2022-08-18T00:41:52.838Z,43.56
2022-08-18T00:43:58.916Z,43.55
2022-08-18T00:46:04.256Z,43.68
2022-08-18T00:48:11.092Z,44.58
2022-08-18T00:50:31.617Z,44.43
2022-08-18T00:52:36.816Z,43.87
2022-08-18T00:54:45.153Z,43.70
2022-08-18T00:56:53.503Z,44.19
2022-08-18T00:59:04.312Z,44.78
2022-08-18T01:01:12.322Z,45.10
2022-08-18T01:03:24.558Z,46.01
2022-08-18T01:05:40.969Z,46.70
2022-08-18T01:07:47.579Z,47.71
2022-08-18T01:09:53.678Z,48.90
2022-08-18T01:11:59.027Z,50.28
2022-08-18T01:14:03.881Z,50.64
2022-08-18T01:16:21.613Z,51.88
2022-08-18T01:18:38.863Z,52.07
2022-08-18T01:21:17.986Z,53.28
2022-08-18T01:23:26.129Z,54.30
2022-08-18T01:25:43.360Z,55.32
2022-08-18T01:27:48.503Z,55.07
2022-08-18T01:29:53.201Z,56.04
2022-08-18T01:31:58.160Z,55.56
2022-08-18T01:34:04.675Z,55.79
2022-08-18T01:36:16.888Z,55.64
2022-08-18T01:38:26.337Z,55.49
2022-08-18T01:41:27.550Z,55.93
2022-08-18T01:42:56.593Z,55.15
2022-08-18T01:45:03.804Z,55.95
2022-08-18T01:47:10.849Z,58.05
2022-08-18T01:49:15.791Z,59.78
2022-08-18T01:51:38.167Z,73.63
2022-08-18T01:53:48.737Z,71.91
2022-08-18T01:55:53.800Z,70.17
2022-08-18T01:57:58.571Z,69.77
2022-08-18T02:00:04.258Z,69.53
2022-08-18T02:02:24.446Z,84.27
2022-08-18T02:04:36.631Z,100.00
2022-08-18T02:06:46.457Z,100.00
2022-08-18T02:08:55.489Z,100.00
2022-08-18T02:11:01.417Z,100.00
2022-08-18T02:13:06.307Z,100.00
2022-08-18T02:15:13.239Z,100.00
2022-08-18T02:17:18.328Z,100.00
2022-08-18T02:19:23.205Z,100.00
2022-08-18T02:21:28.051Z,100.00
2022-08-18T02:23:32.955Z,94.62
2022-08-18T02:25:40.796Z,91.02
2022-08-18T02:27:46.250Z,89.08
2022-08-18T02:29:51.114Z,89.35
2022-08-18T02:31:56.201Z,88.82
2022-08-18T02:34:01.015Z,89.23
2022-08-18T02:36:07.210Z,88.34
2022-08-18T02:38:12.057Z,84.75
2022-08-18T02:40:23.131Z,85.59
2022-08-18T02:42:31.888Z,90.00
2022-08-18T02:44:37.748Z,89.77
2022-08-18T02:46:42.585Z,88.56
2022-08-18T02:48:47.513Z,86.17
2022-08-18T02:50:52.359Z,86.83
2022-08-18T02:52:57.629Z,85.49
2022-08-18T02:55:03.877Z,85.40
2022-08-18T02:57:10.176Z,84.07
2022-08-18T02:59:18.794Z,85.09
2022-08-18T03:01:23.818Z,83.18
2022-08-18T03:03:33.926Z,83.25
2022-08-18T03:05:38.567Z,83.81
2022-08-18T03:07:43.686Z,81.07
2022-08-18T03:09:48.272Z,79.13
2022-08-18T03:11:53.644Z,78.49
2022-08-18T03:14:00.411Z,76.56
2022-08-18T03:16:08.223Z,76.38
2022-08-18T03:18:13.441Z,75.21
2022-08-18T03:20:18.023Z,74.19
2022-08-18T03:22:35.741Z,75.30
2022-08-18T03:24:41.125Z,74.74
2022-08-18T03:26:48.005Z,74.08
2022-08-18T03:28:55.443Z,72.67
2022-08-18T03:31:00.306Z,71.62
2022-08-18T03:33:07.794Z,71.33
2022-08-18T03:35:14.682Z,71.67
2022-08-18T03:37:19.631Z,73.42
2022-08-18T03:39:27.798Z,73.81
2022-08-18T03:41:57.457Z,73.86
2022-08-18T03:43:58.772Z,72.81
2022-08-18T03:46:04.198Z,72.65
2022-08-18T03:48:11.906Z,71.27
2022-08-18T03:50:16.967Z,71.26
2022-08-18T03:52:21.829Z,70.65
2022-08-18T03:54:26.995Z,70.17
2022-08-18T03:56:33.722Z,69.22
2022-08-18T03:58:38.860Z,69.51
2022-08-18T04:00:44.061Z,69.42
2022-08-18T04:02:48.599Z,69.58
2022-08-18T04:04:56.075Z,69.02
2022-08-18T04:07:04.784Z,67.94
2022-08-18T04:09:12.857Z,68.07
2022-08-18T04:11:17.673Z,67.66
2022-08-18T04:13:22.535Z,68.46
2022-08-18T04:15:28.369Z,68.80
2022-08-18T04:17:33.190Z,69.13
2022-08-18T04:19:38.418Z,69.12
2022-08-18T04:21:46.420Z,69.23
2022-08-18T04:23:51.265Z,68.80
2022-08-18T04:25:59.763Z,69.04
2022-08-18T04:28:05.037Z,68.45
2022-08-18T04:30:11.603Z,68.44
2022-08-18T04:32:16.689Z,68.50
2022-08-18T04:34:23.606Z,68.90
2022-08-18T04:36:30.123Z,68.98
2022-08-18T04:38:37.799Z,69.06
2022-08-18T04:40:43.215Z,69.35
2022-08-18T04:42:48.359Z,69.66
2022-08-18T04:44:53.017Z,68.88
2022-08-18T04:46:58.270Z,68.76
2022-08-18T04:49:03.812Z,68.71
2022-08-18T04:51:10.520Z,68.52
2022-08-18T04:53:27.815Z,68.18
2022-08-18T04:55:35.335Z,68.42
2022-08-18T04:57:42.629Z,68.97
2022-08-18T04:59:50.338Z,68.93
2022-08-18T05:01:55.122Z,68.80
2022-08-18T05:04:01.584Z,68.62
2022-08-18T05:06:08.078Z,69.07
2022-08-18T05:08:13.017Z,68.80
2022-08-18T05:10:19.877Z,68.36
2022-08-18T05:12:27.378Z,68.73
2022-08-18T05:14:33.210Z,68.50
2022-08-18T05:16:42.202Z,68.19
2022-08-18T05:18:54.823Z,69.84
2022-08-18T05:21:01.377Z,69.45
2022-08-18T05:23:06.767Z,70.08
2022-08-18T05:25:13.576Z,69.76
2022-08-18T05:27:18.416Z,69.35
2022-08-18T05:29:26.349Z,69.18
2022-08-18T05:31:35.923Z,69.33
2022-08-18T05:33:42.182Z,68.71
2022-08-18T05:35:51.822Z,68.51
2022-08-18T05:38:11.485Z,68.78
2022-08-18T05:40:18.184Z,69.58
2022-08-18T05:42:25.994Z,69.00
2022-08-18T05:44:36.667Z,69.29
2022-08-18T05:46:45.412Z,69.32
2022-08-18T05:48:50.297Z,70.20
2022-08-18T05:50:55.231Z,70.94
2022-08-18T05:53:04.040Z,71.03
2022-08-18T05:55:38.544Z,70.45
2022-08-18T05:57:48.231Z,70.15
2022-08-18T05:59:57.870Z,70.14
2022-08-18T06:02:11.070Z,70.12
2022-08-18T06:04:26.472Z,69.78
2022-08-18T06:06:34.072Z,69.97
2022-08-18T06:08:43.393Z,69.88
2022-08-18T06:10:51.493Z,70.10
2022-08-18T06:13:00.581Z,70.18
2022-08-18T06:15:16.016Z,69.32
2022-08-18T06:17:46.729Z,69.09
2022-08-18T06:20:03.779Z,68.65
2022-08-18T06:22:20.672Z,68.32
2022-08-18T06:24:33.397Z,67.41
2022-08-18T06:26:47.488Z,66.85
2022-08-18T06:29:04.825Z,66.96
2022-08-18T06:31:19.184Z,66.77
2022-08-18T06:33:40.345Z,66.56
2022-08-18T06:35:52.121Z,66.02
2022-08-18T06:38:25.862Z,64.98
2022-08-18T06:40:30.825Z,65.27
2022-08-18T06:42:39.937Z,65.02
2022-08-18T06:44:49.484Z,65.15
2022-08-18T06:47:04.493Z,64.42
2022-08-18T06:49:13.086Z,63.48
2022-08-18T06:51:22.707Z,63.58
2022-08-18T06:53:55.070Z,61.85
2022-08-18T06:56:00.197Z,62.56
2022-08-18T06:58:07.275Z,62.72
2022-08-18T07:00:24.398Z,62.09
2022-08-18T07:02:45.789Z,62.48
2022-08-18T07:05:06.031Z,61.34
2022-08-18T07:07:20.675Z,61.28
2022-08-18T07:09:27.874Z,61.78
2022-08-18T07:11:40.070Z,61.27
2022-08-18T07:13:45.832Z,61.28
2022-08-18T07:15:52.334Z,60.70
2022-08-18T07:18:06.509Z,59.90
2022-08-18T07:20:21.084Z,59.31
2022-08-18T07:22:30.094Z,59.66
2022-08-18T07:24:47.567Z,58.58
2022-08-18T07:27:04.123Z,57.92
2022-08-18T07:29:16.658Z,58.03
2022-08-18T07:31:35.215Z,57.65
2022-08-18T07:33:44.887Z,58.65
2022-08-18T07:35:56.566Z,58.82
2022-08-18T07:38:18.940Z,58.15
2022-08-18T07:40:35.805Z,57.93
2022-08-18T07:42:54.301Z,57.00
2022-08-18T07:45:08.445Z,57.77
2022-08-18T07:47:20.246Z,56.36
2022-08-18T07:49:31.110Z,56.40
2022-08-18T07:51:53.151Z,55.78
2022-08-18T07:54:02.919Z,55.42
2022-08-18T07:56:17.010Z,54.97
2022-08-18T07:58:29.724Z,55.10
2022-08-18T08:03:21.633Z,54.55
2022-08-18T08:05:41.913Z,54.30
2022-08-18T08:07:52.706Z,54.48
2022-08-18T08:10:13.801Z,53.93
2022-08-18T08:12:31.121Z,54.30
2022-08-18T08:14:43.840Z,52.54
2022-08-18T08:16:53.412Z,53.32
2022-08-18T08:19:12.110Z,52.66
2022-08-18T08:21:23.707Z,52.36
2022-08-18T08:23:33.927Z,52.07
2022-08-18T08:25:50.774Z,51.95
2022-08-18T08:28:08.336Z,50.60
2022-08-18T08:30:16.726Z,50.56
2022-08-18T08:32:32.553Z,49.42
2022-08-18T08:34:45.701Z,49.30
2022-08-18T08:37:01.552Z,48.78
2022-08-18T08:39:13.331Z,48.93
2022-08-18T08:41:26.236Z,48.77
2022-08-18T08:43:37.379Z,48.84
2022-08-18T08:45:48.551Z,49.07
2022-08-18T08:48:08.474Z,49.28
2022-08-18T08:50:17.574Z,48.67
2022-08-18T08:52:32.801Z,48.62
2022-08-18T08:54:46.751Z,47.63
2022-08-18T08:56:54.616Z,48.32
2022-08-18T08:59:03.303Z,47.62
2022-08-18T09:01:10.190Z,47.69
2022-08-18T09:03:34.537Z,47.42
2022-08-18T09:05:44.397Z,47.42
2022-08-18T09:08:09.637Z,47.14
2022-08-18T09:10:54.455Z,47.06
2022-08-18T09:13:16.670Z,47.48
2022-08-18T09:15:59.992Z,47.62
2022-08-18T09:18:34.245Z,47.47
2022-08-18T09:21:04.625Z,47.72
2022-08-18T09:23:20.128Z,48.53
2022-08-18T09:25:47.006Z,48.37
2022-08-18T09:28:10.313Z,48.08
2022-08-18T09:30:43.053Z,48.08
2022-08-18T09:32:59.815Z,47.62
2022-08-18T09:35:38.089Z,47.21
2022-08-18T09:38:12.636Z,47.08
2022-08-18T09:43:20.220Z,46.53
2022-08-18T09:45:45.288Z,48.13
2022-08-18T09:50:57.168Z,47.35
2022-08-18T09:53:20.083Z,46.86
2022-08-18T09:56:01.391Z,46.21
2022-08-18T09:58:25.662Z,46.12
2022-08-18T10:00:34.162Z,45.83
2022-08-18T10:03:06.217Z,46.42
2022-08-18T10:05:29.943Z,45.97
2022-08-18T10:07:43.926Z,45.62
2022-08-18T10:10:12.844Z,44.41
2022-08-18T10:12:56.789Z,43.56
2022-08-18T10:15:40.721Z,44.03
2022-08-18T10:18:01.156Z,43.73
2022-08-18T10:22:47.942Z,44.19
2022-08-18T10:25:09.190Z,43.97
2022-08-18T10:27:49.551Z,42.92
2022-08-18T10:29:57.737Z,43.90
2022-08-18T10:32:33.989Z,43.34
2022-08-18T10:34:52.315Z,42.50
2022-08-18T10:37:00.329Z,41.64
2022-08-18T10:39:07.951Z,41.44
2022-08-18T10:41:22.591Z,41.25
2022-08-18T10:43:55.502Z,40.75
2022-08-18T10:46:25.319Z,41.61
2022-08-18T10:48:28.835Z,41.75
2022-08-18T10:50:47.203Z,41.29
2022-08-18T10:53:39.309Z,41.39
2022-08-18T10:55:50.905Z,41.80
2022-08-18T10:58:15.433Z,41.14
2022-08-18T11:00:26.113Z,41.44
2022-08-18T11:03:02.024Z,40.43
2022-08-18T11:05:10.678Z,40.29
2022-08-18T11:07:19.622Z,40.14
2022-08-18T11:09:29.751Z,40.30
2022-08-18T11:11:42.133Z,40.40
2022-08-18T11:14:03.339Z,40.30
2022-08-18T11:16:24.077Z,40.20
2022-08-18T11:18:43.162Z,40.42
2022-08-18T11:20:48.438Z,40.45
2022-08-18T11:22:56.794Z,39.90
2022-08-18T11:25:03.711Z,39.45
2022-08-18T11:27:22.587Z,39.60
2022-08-18T11:29:34.222Z,40.02
2022-08-18T11:31:41.813Z,39.83
2022-08-18T11:33:46.708Z,39.81
2022-08-18T11:36:01.677Z,40.40
2022-08-18T11:38:20.914Z,40.38
2022-08-18T11:41:10.883Z,39.81
2022-08-18T11:43:17.382Z,40.46
2022-08-18T11:45:30.066Z,40.22
2022-08-18T11:47:40.535Z,39.78
2022-08-18T11:49:55.297Z,40.14
2022-08-18T11:52:03.545Z,39.87
2022-08-18T11:54:24.998Z,39.23
2022-08-18T11:56:37.669Z,39.51
2022-08-18T11:58:46.328Z,38.91
2022-08-18T12:01:02.980Z,39.16
2022-08-18T12:03:16.247Z,39.07
2022-08-18T12:05:21.366Z,39.53
2022-08-18T12:07:33.625Z,39.09
2022-08-18T12:15:02.912Z,38.27
2022-08-18T12:17:14.020Z,38.83
2022-08-18T12:19:22.284Z,38.15
2022-08-18T12:21:29.437Z,38.48
2022-08-18T12:23:39.069Z,38.22
2022-08-18T12:25:53.733Z,38.57
2022-08-18T12:27:58.412Z,38.40
2022-08-18T12:30:04.176Z,38.40
2022-08-18T12:34:37.863Z,38.01
2022-08-18T12:36:47.286Z,38.72
2022-08-18T12:38:56.242Z,38.36
2022-08-18T12:41:01.765Z,38.25
2022-08-18T12:43:08.173Z,37.77
2022-08-18T12:45:13.755Z,37.43
2022-08-18T12:47:21.528Z,37.66
2022-08-18T12:49:28.207Z,37.38
2022-08-18T12:51:37.120Z,37.54
2022-08-18T12:53:59.151Z,37.44
2022-08-18T12:56:05.244Z,37.71
2022-08-18T12:58:10.198Z,37.91
2022-08-18T13:00:18.778Z,37.63
2022-08-18T13:02:24.362Z,37.27
2022-08-18T13:04:30.927Z,37.35
2022-08-18T13:06:54.188Z,37.55
2022-08-18T13:09:16.719Z,38.52
2022-08-18T13:11:32.084Z,38.70
2022-08-18T13:15:57.814Z,38.20
2022-08-18T13:18:06.593Z,38.99
2022-08-18T13:20:21.117Z,39.13
2022-08-18T13:22:32.798Z,38.59
2022-08-18T13:24:38.194Z,39.38
2022-08-18T13:26:46.612Z,39.35
2022-08-18T13:28:57.063Z,38.93
2022-08-18T13:31:05.544Z,39.10
2022-08-18T13:33:53.564Z,38.71
2022-08-18T13:35:44.090Z,39.18
2022-08-18T13:37:52.550Z,38.59
2022-08-18T13:39:58.372Z,38.28
2022-08-18T13:42:21.427Z,38.86
2022-08-18T13:44:29.199Z,38.31
2022-08-18T13:46:34.076Z,38.26
2022-08-18T13:48:38.704Z,38.27
2022-08-18T13:50:46.743Z,38.07
2022-08-18T13:52:54.931Z,38.24
2022-08-18T13:54:59.929Z,37.82
2022-08-18T13:57:05.557Z,37.39
2022-08-18T13:59:11.652Z,37.49
2022-08-18T14:01:41.935Z,37.08
2022-08-18T14:03:46.609Z,37.32
2022-08-18T14:05:57.582Z,36.85
2022-08-18T14:08:09.039Z,36.88
2022-08-18T14:10:16.855Z,36.96
2022-08-18T14:12:28.265Z,36.62
2022-08-18T14:14:36.150Z,36.74
2022-08-18T14:16:42.343Z,36.31
2022-08-18T14:19:09.838Z,36.81
2022-08-18T14:21:27.618Z,36.16
2022-08-18T14:23:53.123Z,36.15
2022-08-18T14:26:10.498Z,36.02
2022-08-18T14:28:24.800Z,36.12
2022-08-18T14:30:30.216Z,36.07
2022-08-18T14:32:36.188Z,35.88
2022-08-18T14:34:50.862Z,36.59
2022-08-18T14:36:55.909Z,36.19
2022-08-18T14:39:06.256Z,36.56
2022-08-18T14:41:16.086Z,36.36
2022-08-18T14:43:24.848Z,36.53
2022-08-18T14:45:35.245Z,36.14
2022-08-18T14:47:42.246Z,36.76
2022-08-18T14:49:47.830Z,36.23
2022-08-18T14:51:53.257Z,36.07
2022-08-18T14:53:58.201Z,36.00
2022-08-18T14:56:08.113Z,35.42
2022-08-18T14:58:14.781Z,35.15
2022-08-18T15:00:23.726Z,35.22
2022-08-18T15:02:29.100Z,35.34
2022-08-18T15:04:34.007Z,35.58
2022-08-18T15:06:43.474Z,35.69
2022-08-18T15:09:00.564Z,35.38
2022-08-18T15:11:11.703Z,35.51
2022-08-18T15:13:17.259Z,35.16
2022-08-18T15:15:22.829Z,34.61
2022-08-18T15:17:30.189Z,35.53
2022-08-18T15:19:59.577Z,35.45
2022-08-18T15:22:15.974Z,35.51
2022-08-18T15:24:33.446Z,35.43
2022-08-18T15:26:45.953Z,35.42
2022-08-18T15:28:50.947Z,35.59
2022-08-18T15:33:25.854Z,36.14
2022-08-18T15:35:36.407Z,36.37
2022-08-18T15:37:43.935Z,36.57
2022-08-18T15:39:51.845Z,36.56
2022-08-18T15:42:05.159Z,37.20
2022-08-18T15:44:11.460Z,37.07
2022-08-18T15:46:16.946Z,36.74
2022-08-18T15:48:24.294Z,37.17
2022-08-18T15:50:29.444Z,36.85
2022-08-18T15:52:34.388Z,36.41
2022-08-18T15:54:42.376Z,36.33
2022-08-18T15:56:57.857Z,36.56
2022-08-18T15:59:10.323Z,36.79
2022-08-18T16:01:21.130Z,36.67
2022-08-18T16:03:35.628Z,35.99
2022-08-18T16:05:41.584Z,36.29
2022-08-18T16:07:47.731Z,35.58
2022-08-18T16:09:52.817Z,35.43
2022-08-18T16:12:00.221Z,35.23
2022-08-18T16:14:09.300Z,35.28
2022-08-18T16:16:16.580Z,35.39
2022-08-18T16:18:34.243Z,35.54
2022-08-18T16:20:40.344Z,35.47
2022-08-18T16:22:45.340Z,35.63
2022-08-18T16:24:54.924Z,35.42
2022-08-18T16:27:00.248Z,35.71
2022-08-18T16:29:07.658Z,35.73
2022-08-18T16:31:15.561Z,35.72
2022-08-18T16:33:20.588Z,35.85
2022-08-18T16:35:26.320Z,36.59
2022-08-18T16:37:31.269Z,36.77
2022-08-18T16:39:36.166Z,37.23
2022-08-18T16:41:41.228Z,37.62
2022-08-18T16:43:47.376Z,38.12
2022-08-18T16:45:55.840Z,38.01
2022-08-18T16:48:00.671Z,38.19
2022-08-18T16:50:05.529Z,38.74
2022-08-18T16:52:10.466Z,38.60
2022-08-18T16:54:16.486Z,38.87
2022-08-18T16:56:23.950Z,38.86
2022-08-18T16:58:41.552Z,38.91
2022-08-18T17:00:59.519Z,39.27
2022-08-18T17:03:22.495Z,39.37
2022-08-18T17:05:27.462Z,39.84
2022-08-18T17:07:32.593Z,40.12
2022-08-18T17:09:38.482Z,40.47
2022-08-18T17:11:51.785Z,40.36
2022-08-18T17:13:59.023Z,40.54
2022-08-18T17:16:03.930Z,40.53
2022-08-18T17:18:11.160Z,40.85
2022-08-18T17:20:19.097Z,41.01
2022-08-18T17:22:24.266Z,40.94
2022-08-18T17:24:31.209Z,40.95
2022-08-18T17:26:46.578Z,40.90
2022-08-18T17:29:00.873Z,40.80
2022-08-18T17:31:05.754Z,40.51
2022-08-18T17:33:18.151Z,40.89
2022-08-18T17:35:29.160Z,40.46
2022-08-18T17:37:34.591Z,40.67
2022-08-18T17:39:44.493Z,40.70
2022-08-18T17:42:02.185Z,40.79
2022-08-18T17:44:09.578Z,41.26
2022-08-18T17:46:23.748Z,41.30
2022-08-18T17:48:38.091Z,41.53
2022-08-18T17:51:00.740Z,41.44
2022-08-18T17:53:08.976Z,41.75
2022-08-18T17:55:26.025Z,41.33
2022-08-18T17:57:35.280Z,41.80
2022-08-18T17:59:51.887Z,42.20
2022-08-18T18:02:16.650Z,42.14
2022-08-18T18:04:36.620Z,42.44
2022-08-18T18:06:46.284Z,42.32
2022-08-18T18:08:57.892Z,42.78
2022-08-18T18:11:13.628Z,43.27
2022-08-18T18:13:28.699Z,44.06
2022-08-18T18:15:39.830Z,44.78
2022-08-18T18:17:46.018Z,45.67
2022-08-18T18:19:59.864Z,45.98
2022-08-18T18:22:08.200Z,46.26
2022-08-18T18:24:23.881Z,46.24
2022-08-18T18:26:31.923Z,46.70
2022-08-18T18:28:38.296Z,46.93
2022-08-18T18:30:43.760Z,47.21
2022-08-18T18:32:59.043Z,47.48
2022-08-18T18:35:20.149Z,47.65
2022-08-18T18:37:32.594Z,47.87
2022-08-18T18:39:39.605Z,47.77
2022-08-18T18:41:44.508Z,47.86
2022-08-18T18:43:51.328Z,48.37
2022-08-18T18:46:29.214Z,48.95
2022-08-18T18:48:52.182Z,48.53
2022-08-18T18:51:11.873Z,48.82
2022-08-18T18:53:27.376Z,49.33
2022-08-18T18:55:36.017Z,49.08
2022-08-18T18:57:48.503Z,48.78
2022-08-18T19:00:09.701Z,48.70
2022-08-18T19:02:33.161Z,48.41
2022-08-18T19:04:42.687Z,48.69
2022-08-18T19:06:56.249Z,48.49
2022-08-18T19:09:09.230Z,48.64
2022-08-18T19:11:22.023Z,48.66
2022-08-18T19:13:33.221Z,48.88
2022-08-18T19:15:41.933Z,48.93
2022-08-18T19:17:51.756Z,49.15
2022-08-18T19:20:03.292Z,49.17
2022-08-18T19:22:17.041Z,48.91
2022-08-18T19:24:25.572Z,49.78
2022-08-18T19:26:36.179Z,49.56
2022-08-18T19:29:01.162Z,49.08
2022-08-18T19:31:15.659Z,49.32
2022-08-18T19:33:32.611Z,49.53
2022-08-18T19:35:59.136Z,49.51
2022-08-18T19:38:20.955Z,49.87
2022-08-18T19:40:31.813Z,49.65
2022-08-18T19:42:42.847Z,50.16
2022-08-18T19:45:14.911Z,50.36
2022-08-18T19:47:26.864Z,50.63
2022-08-18T19:49:38.966Z,49.97
2022-08-18T19:51:44.601Z,50.25
2022-08-18T19:54:23.184Z,50.19
2022-08-18T19:56:48.273Z,49.96
2022-08-18T19:59:26.968Z,50.09
2022-08-18T20:01:52.945Z,49.76
2022-08-18T20:04:15.047Z,49.81
2022-08-18T20:06:37.780Z,49.59
2022-08-18T20:09:04.113Z,49.19
2022-08-18T20:11:44.113Z,49.37
2022-08-18T20:13:49.804Z,49.35
2022-08-18T20:16:14.046Z,49.59
2022-08-18T20:18:26.571Z,49.16
2022-08-18T20:20:33.166Z,48.86
2022-08-18T20:22:43.295Z,49.26
2022-08-18T20:24:57.134Z,48.75
2022-08-18T20:27:35.200Z,48.66
2022-08-18T20:29:48.168Z,48.71
2022-08-18T20:32:02.936Z,48.09
2022-08-18T20:34:14.753Z,47.75
2022-08-18T20:36:30.199Z,47.59
2022-08-18T20:38:37.529Z,47.53
2022-08-18T20:40:46.799Z,47.13
2022-08-18T20:43:06.611Z,47.44
2022-08-18T20:45:15.882Z,46.84
2022-08-18T20:47:45.392Z,46.71
2022-08-18T20:50:03.069Z,46.63
2022-08-18T20:52:15.895Z,46.61
2022-08-18T20:54:30.231Z,47.13
2022-08-18T20:56:43.082Z,47.19
2022-08-18T20:58:59.615Z,46.95
2022-08-18T21:01:04.322Z,47.49
2022-08-18T21:03:13.774Z,47.53
2022-08-18T21:05:27.668Z,47.30
2022-08-18T21:07:36.648Z,47.76
2022-08-18T21:09:42.594Z,48.05
2022-08-18T21:11:49.849Z,47.64
2022-08-18T21:14:04.104Z,47.94
2022-08-18T21:16:09.963Z,48.13
2022-08-18T21:18:21.725Z,48.69
2022-08-18T21:20:26.753Z,49.67
2022-08-18T21:22:32.020Z,50.13
2022-08-18T21:24:40.427Z,50.70
2022-08-18T21:26:50.226Z,51.50
2022-08-18T21:29:00.204Z,52.90
2022-08-18T21:31:41.676Z,53.59
2022-08-18T21:33:33.385Z,54.99
2022-08-18T21:35:39.671Z,55.41
2022-08-18T21:37:45.039Z,55.69
2022-08-18T21:39:55.991Z,56.06
2022-08-18T21:42:02.117Z,56.58
2022-08-18T21:44:11.084Z,57.24
2022-08-18T21:46:23.881Z,57.35
2022-08-18T21:48:30.403Z,57.54
2022-08-18T21:50:37.226Z,58.36
2022-08-18T21:52:53.297Z,58.69
2022-08-18T21:55:04.500Z,59.35
2022-08-18T21:57:25.021Z,59.71
2022-08-18T21:59:32.527Z,59.75
2022-08-18T22:01:39.634Z,60.12
2022-08-18T22:03:59.585Z,61.24
2022-08-18T22:06:15.600Z,61.42
2022-08-18T22:08:23.912Z,61.84
2022-08-18T22:10:44.027Z,62.02
2022-08-18T22:13:07.863Z,62.01
2022-08-18T22:15:19.581Z,61.98
2022-08-18T22:17:35.139Z,62.27
2022-08-18T22:19:39.734Z,63.11
2022-08-18T22:21:49.885Z,62.93
2022-08-18T22:24:07.706Z,63.14
2022-08-18T22:26:16.636Z,63.22
2022-08-18T22:28:27.287Z,63.65
2022-08-18T22:30:36.136Z,62.99
2022-08-18T22:32:45.732Z,63.18
2022-08-18T22:34:53.453Z,63.58
2022-08-18T22:37:02.075Z,63.62
2022-08-18T22:39:08.918Z,63.97
2022-08-18T22:41:13.874Z,63.83
2022-08-18T22:43:19.427Z,64.63
2022-08-18T22:45:24.298Z,64.75
2022-08-18T22:47:42.658Z,64.89
2022-08-18T22:49:47.847Z,65.11
2022-08-18T22:51:57.985Z,65.05
2022-08-18T22:54:02.923Z,66.29
2022-08-18T22:56:08.249Z,66.13
2022-08-18T22:58:13.379Z,66.63
2022-08-18T23:00:23.942Z,66.06
2022-08-18T23:02:32.662Z,66.50
2022-08-18T23:04:37.585Z,66.01
2022-08-18T23:06:42.556Z,65.97
2022-08-18T23:08:54.572Z,65.70
2022-08-18T23:11:00.871Z,65.73
2022-08-18T23:13:05.756Z,64.95
2022-08-18T23:15:13.571Z,65.40
2022-08-18T23:17:21.501Z,65.34
2022-08-18T23:19:31.559Z,65.70
2022-08-18T23:21:37.114Z,65.90
2022-08-18T23:23:42.034Z,65.77
2022-08-18T23:25:47.922Z,66.15
2022-08-18T23:27:52.818Z,66.83
2022-08-18T23:29:57.649Z,67.49
2022-08-18T23:32:05.208Z,67.30
2022-08-18T23:34:11.564Z,67.57
2022-08-18T23:36:18.969Z,67.14
2022-08-18T23:38:24.023Z,67.47
2022-08-18T23:40:37.449Z,66.96
2022-08-18T23:42:42.358Z,67.23
2022-08-18T23:44:47.325Z,67.28
2022-08-18T23:46:52.661Z,67.43
2022-08-18T23:48:59.786Z,67.43
2022-08-18T23:51:04.677Z,67.74
2022-08-18T23:53:15.098Z,67.57
2022-08-18T23:55:19.968Z,68.17
2022-08-18T23:57:24.823Z,68.08
2022-08-18T23:59:31.725Z,68.50
